createdAt,value
2019-01-15T00:00:40.007Z,1012.67
2019-01-15T00:01:40.021Z,1012.70
2019-01-15T00:02:40.036Z,1012.67
2019-01-15T00:03:40.051Z,1012.69
2019-01-15T00:04:40.064Z,1012.68
2019-01-15T00:05:40.075Z,1012.67
2019-01-15T00:06:40.092Z,1012.69
2019-01-15T00:07:40.105Z,1012.66
2019-01-15T00:08:40.121Z,1012.70
2019-01-15T00:09:40.129Z,1012.69
2019-01-15T00:10:40.148Z,1012.68
2019-01-15T00:11:40.159Z,1012.70
2019-01-15T00:12:40.172Z,1012.69
2019-01-15T00:13:40.187Z,1012.63
2019-01-15T00:14:40.200Z,1012.69
2019-01-15T00:15:40.212Z,1012.71
2019-01-15T00:16:40.228Z,1012.67
2019-01-15T00:17:40.240Z,1012.72
2019-01-15T00:18:40.255Z,1012.71
2019-01-15T00:19:40.266Z,1012.74
2019-01-15T00:20:40.282Z,1012.77
2019-01-15T00:21:40.298Z,1012.69
2019-01-15T00:22:40.307Z,1012.69
2019-01-15T00:23:40.324Z,1012.68
2019-01-15T00:24:40.338Z,1012.65
2019-01-15T00:25:40.350Z,1012.67
2019-01-15T00:26:40.365Z,1012.69
2019-01-15T00:27:40.376Z,1012.66
2019-01-15T00:28:40.390Z,1012.67
2019-01-15T00:29:40.403Z,1012.64
2019-01-15T00:30:40.420Z,1012.65
2019-01-15T00:31:40.432Z,1012.64
2019-01-15T00:32:40.445Z,1012.61
2019-01-15T00:33:40.460Z,1012.62
2019-01-15T00:34:40.473Z,1012.58
2019-01-15T00:35:40.487Z,1012.57
2019-01-15T00:36:41.774Z,1012.60
2019-01-15T00:37:40.514Z,1012.57
2019-01-15T00:38:40.525Z,1012.55
2019-01-15T00:39:40.545Z,1012.54
2019-01-15T00:40:40.556Z,1012.60
2019-01-15T00:41:40.568Z,1012.60
2019-01-15T00:42:40.583Z,1012.58
2019-01-15T00:43:40.594Z,1012.59
2019-01-15T00:44:40.610Z,1012.60
2019-01-15T00:45:40.624Z,1012.59
2019-01-15T00:46:40.636Z,1012.58
2019-01-15T00:47:40.648Z,1012.59
2019-01-15T00:48:40.662Z,1012.62
2019-01-15T00:49:40.684Z,1012.63
2019-01-15T00:50:40.689Z,1012.61
2019-01-15T00:51:40.708Z,1012.62
2019-01-15T00:52:40.719Z,1012.69
2019-01-15T00:53:40.729Z,1012.68
2019-01-15T00:54:40.897Z,1012.68
2019-01-15T00:55:40.758Z,1012.71
2019-01-15T00:56:40.774Z,1012.74
2019-01-15T00:57:40.786Z,1012.81
2019-01-15T00:58:40.857Z,1012.82
2019-01-15T00:59:40.814Z,1012.81
2019-01-15T01:00:40.829Z,1012.79
2019-01-15T01:01:40.843Z,1012.81
2019-01-15T01:02:40.853Z,1012.82
2019-01-15T01:03:40.869Z,1012.85
2019-01-15T01:04:40.881Z,1012.85
2019-01-15T01:05:40.899Z,1012.84
2019-01-15T01:06:40.908Z,1012.78
2019-01-15T01:07:40.928Z,1012.73
2019-01-15T01:08:40.936Z,1012.72
2019-01-15T01:09:40.949Z,1012.74
2019-01-15T01:10:41.068Z,1012.71
2019-01-15T01:11:40.982Z,1012.68
2019-01-15T01:12:40.991Z,1012.70
2019-01-15T01:13:41.006Z,1012.68
2019-01-15T01:14:41.017Z,1012.71
2019-01-15T01:15:41.032Z,1012.71
2019-01-15T01:16:41.049Z,1012.77
2019-01-15T01:17:41.058Z,1012.73
2019-01-15T01:18:41.073Z,1012.74
2019-01-15T01:19:41.090Z,1012.78
2019-01-15T01:20:41.103Z,1012.75
2019-01-15T01:21:41.114Z,1012.73
2019-01-15T01:22:41.136Z,1012.70
2019-01-15T01:23:41.142Z,1012.71
2019-01-15T01:24:41.155Z,1012.73
2019-01-15T01:25:41.172Z,1012.74
2019-01-15T01:26:41.185Z,1012.77
2019-01-15T01:27:41.202Z,1012.74
2019-01-15T01:28:41.211Z,1012.71
2019-01-15T01:29:41.378Z,1012.76
2019-01-15T01:30:41.240Z,1012.69
2019-01-15T01:31:41.252Z,1012.75
2019-01-15T01:32:41.271Z,1012.79
2019-01-15T01:33:41.281Z,1012.83
2019-01-15T01:34:41.295Z,1012.86
2019-01-15T01:35:41.310Z,1012.93
2019-01-15T01:36:41.323Z,1012.91
2019-01-15T01:37:41.336Z,1012.95
2019-01-15T01:38:41.348Z,1012.92
2019-01-15T01:39:41.364Z,1012.97
2019-01-15T01:40:41.376Z,1012.94
2019-01-15T01:41:41.390Z,1012.98
2019-01-15T01:42:41.403Z,1013.01
2019-01-15T01:43:41.420Z,1013.01
2019-01-15T01:44:41.432Z,1013.01
2019-01-15T01:45:41.447Z,1012.99
2019-01-15T01:46:41.462Z,1012.99
2019-01-15T01:47:41.473Z,1012.97
2019-01-15T01:48:41.489Z,1012.90
2019-01-15T01:49:41.504Z,1012.83
2019-01-15T01:50:41.514Z,1012.75
2019-01-15T01:51:41.536Z,1012.71
2019-01-15T01:52:41.542Z,1012.77
2019-01-15T01:53:41.556Z,1012.77
2019-01-15T01:54:41.570Z,1012.79
2019-01-15T01:55:41.585Z,1012.79
2019-01-15T01:56:41.598Z,1012.71
2019-01-15T01:57:41.612Z,1012.69
2019-01-15T01:58:41.624Z,1012.71
2019-01-15T01:59:41.643Z,1012.68
2019-01-15T02:00:41.656Z,1012.74
2019-01-15T02:01:41.671Z,1012.76
2019-01-15T02:02:41.680Z,1012.78
2019-01-15T02:03:41.694Z,1012.79
2019-01-15T02:04:41.713Z,1012.75
2019-01-15T02:05:41.721Z,1012.73
2019-01-15T02:06:41.736Z,1012.72
2019-01-15T02:07:41.752Z,1012.70
2019-01-15T02:08:41.767Z,1012.70
2019-01-15T02:09:41.780Z,1012.71
2019-01-15T02:10:41.792Z,1012.65
2019-01-15T02:11:41.807Z,1012.63
2019-01-15T02:12:41.821Z,1012.60
2019-01-15T02:13:41.834Z,1012.56
2019-01-15T02:14:41.848Z,1012.52
2019-01-15T02:15:41.863Z,1012.47
2019-01-15T02:16:41.877Z,1012.48
2019-01-15T02:17:41.891Z,1012.48
2019-01-15T02:18:41.905Z,1012.52
2019-01-15T02:19:41.916Z,1012.51
2019-01-15T02:20:41.932Z,1012.45
2019-01-15T02:21:41.946Z,1012.45
2019-01-15T02:22:41.961Z,1012.48
2019-01-15T02:23:41.971Z,1012.47
2019-01-15T02:24:41.985Z,1012.41
2019-01-15T02:25:42.003Z,1012.42
2019-01-15T02:26:42.013Z,1012.42
2019-01-15T02:27:42.030Z,1012.43
2019-01-15T02:28:42.041Z,1012.37
2019-01-15T02:29:42.056Z,1012.41
2019-01-15T02:30:42.071Z,1012.41
2019-01-15T02:31:42.081Z,1012.45
2019-01-15T02:32:42.096Z,1012.46
2019-01-15T02:33:42.210Z,1012.49
2019-01-15T02:34:42.126Z,1012.49
2019-01-15T02:35:42.143Z,1012.45
2019-01-15T02:36:42.155Z,1012.43
2019-01-15T02:37:42.168Z,1012.46
2019-01-15T02:38:42.183Z,1012.44
2019-01-15T02:39:42.258Z,1012.42
2019-01-15T02:40:42.210Z,1012.40
2019-01-15T02:41:42.221Z,1012.37
2019-01-15T02:42:46.650Z,1012.38
2019-01-15T02:43:42.250Z,1012.38
2019-01-15T02:44:42.264Z,1012.36
2019-01-15T02:45:42.293Z,1012.38
2019-01-15T02:46:42.292Z,1012.35
2019-01-15T02:47:42.306Z,1012.41
2019-01-15T02:48:42.319Z,1012.39
2019-01-15T02:49:42.330Z,1012.34
2019-01-15T02:50:42.350Z,1012.36
2019-01-15T02:51:42.362Z,1012.35
2019-01-15T02:52:42.384Z,1012.35
2019-01-15T02:53:42.388Z,1012.37
2019-01-15T02:54:42.400Z,1012.36
2019-01-15T02:55:42.417Z,1012.40
2019-01-15T02:56:42.429Z,1012.39
2019-01-15T02:57:42.450Z,1012.38
2019-01-15T02:58:42.456Z,1012.35
2019-01-15T02:59:42.470Z,1012.38
2019-01-15T03:00:42.484Z,1012.29
2019-01-15T03:01:42.497Z,1012.30
2019-01-15T03:02:42.514Z,1012.35
2019-01-15T03:03:42.531Z,1012.38
2019-01-15T03:04:42.543Z,1012.41
2019-01-15T03:05:42.552Z,1012.39
2019-01-15T03:06:42.566Z,1012.38
2019-01-15T03:07:42.584Z,1012.34
2019-01-15T03:08:42.596Z,1012.33
2019-01-15T03:09:42.611Z,1012.31
2019-01-15T03:10:42.628Z,1012.30
2019-01-15T03:11:42.637Z,1012.31
2019-01-15T03:12:42.651Z,1012.24
2019-01-15T03:13:42.665Z,1012.27
2019-01-15T03:14:42.677Z,1012.27
2019-01-15T03:15:42.694Z,1012.28
2019-01-15T03:16:42.709Z,1012.22
2019-01-15T03:17:42.753Z,1012.27
2019-01-15T03:18:42.732Z,1012.29
2019-01-15T03:19:42.800Z,1012.27
2019-01-15T03:20:42.764Z,1012.26
2019-01-15T03:21:42.825Z,1012.25
2019-01-15T03:22:42.788Z,1012.17
2019-01-15T03:23:43.153Z,1012.18
2019-01-15T03:24:42.820Z,1012.18
2019-01-15T03:25:42.831Z,1012.12
2019-01-15T03:26:42.845Z,1012.16
2019-01-15T03:27:42.857Z,1012.21
2019-01-15T03:28:42.871Z,1012.26
2019-01-15T03:29:42.885Z,1012.20
2019-01-15T03:30:42.901Z,1012.19
2019-01-15T03:31:42.914Z,1012.17
2019-01-15T03:32:42.941Z,1012.14
2019-01-15T03:33:42.943Z,1012.12
2019-01-15T03:34:42.957Z,1012.16
2019-01-15T03:35:42.968Z,1012.17
2019-01-15T03:36:42.984Z,1012.19
2019-01-15T03:37:42.997Z,1012.18
2019-01-15T03:38:43.360Z,1012.20
2019-01-15T03:39:43.025Z,1012.13
2019-01-15T03:40:43.037Z,1012.08
2019-01-15T03:41:43.052Z,1012.11
2019-01-15T03:42:43.067Z,1012.12
2019-01-15T03:43:43.080Z,1012.11
2019-01-15T03:44:43.095Z,1012.10
2019-01-15T03:45:43.109Z,1012.10
2019-01-15T03:46:43.129Z,1012.06
2019-01-15T03:47:43.135Z,1012.04
2019-01-15T03:48:43.150Z,1012.03
2019-01-15T03:49:43.161Z,1012.05
2019-01-15T03:50:43.175Z,1012.07
2019-01-15T03:51:43.189Z,1012.01
2019-01-15T03:52:43.203Z,1012.07
2019-01-15T03:53:43.216Z,1012.03
2019-01-15T03:54:43.240Z,1012.07
2019-01-15T03:55:43.247Z,1012.06
2019-01-15T03:56:43.261Z,1012.12
2019-01-15T03:57:43.272Z,1012.12
2019-01-15T03:58:43.287Z,1012.10
2019-01-15T03:59:43.300Z,1012.14
2019-01-15T04:00:43.315Z,1012.17
2019-01-15T04:01:43.332Z,1012.18
2019-01-15T04:02:43.343Z,1012.13
2019-01-15T04:03:43.354Z,1012.15
2019-01-15T04:04:43.377Z,1012.16
2019-01-15T04:05:43.385Z,1012.11
2019-01-15T04:06:43.396Z,1012.10
2019-01-15T04:07:43.412Z,1012.07
2019-01-15T04:08:43.423Z,1012.06
2019-01-15T04:09:43.437Z,1012.01
2019-01-15T04:10:43.455Z,1012.02
2019-01-15T04:11:43.465Z,1011.94
2019-01-15T04:12:43.482Z,1011.89
2019-01-15T04:13:43.494Z,1011.87
2019-01-15T04:14:43.508Z,1011.80
2019-01-15T04:15:43.523Z,1011.78
2019-01-15T04:16:43.535Z,1011.73
2019-01-15T04:17:43.552Z,1011.74
2019-01-15T04:18:43.564Z,1011.79
2019-01-15T04:19:43.577Z,1011.82
2019-01-15T04:20:43.641Z,1011.88
2019-01-15T04:21:43.607Z,1011.86
2019-01-15T04:22:43.620Z,1011.94
2019-01-15T04:23:43.641Z,1011.93
2019-01-15T04:24:43.648Z,1011.99
2019-01-15T04:25:43.661Z,1011.99
2019-01-15T04:26:43.673Z,1012.03
2019-01-15T04:27:43.702Z,1011.94
2019-01-15T04:28:43.701Z,1012.00
2019-01-15T04:29:43.718Z,1012.01
2019-01-15T04:30:43.729Z,1012.01
2019-01-15T04:31:43.745Z,1012.00
2019-01-15T04:32:43.765Z,1011.99
2019-01-15T04:33:43.772Z,1011.96
2019-01-15T04:34:43.788Z,1011.98
2019-01-15T04:35:43.801Z,1012.02
2019-01-15T04:36:43.814Z,1011.97
2019-01-15T04:37:43.828Z,1011.95
2019-01-15T04:38:43.845Z,1011.98
2019-01-15T04:39:43.857Z,1011.95
2019-01-15T04:40:43.870Z,1011.97
2019-01-15T04:41:43.885Z,1011.95
2019-01-15T04:42:43.896Z,1011.95
2019-01-15T04:43:43.910Z,1011.91
2019-01-15T04:44:43.926Z,1011.91
2019-01-15T04:45:43.937Z,1011.85
2019-01-15T04:46:43.957Z,1011.83
2019-01-15T04:47:43.965Z,1011.79
2019-01-15T04:48:43.982Z,1011.78
2019-01-15T04:49:43.996Z,1011.78
2019-01-15T04:50:44.010Z,1011.75
2019-01-15T04:51:44.025Z,1011.78
2019-01-15T04:52:44.036Z,1011.79
2019-01-15T04:53:44.050Z,1011.79
2019-01-15T04:54:44.065Z,1011.77
2019-01-15T04:55:44.077Z,1011.81
2019-01-15T04:56:44.094Z,1011.86
2019-01-15T04:57:44.106Z,1011.78
2019-01-15T04:58:44.121Z,1011.80
2019-01-15T04:59:44.138Z,1011.79
2019-01-15T05:00:44.146Z,1011.82
2019-01-15T05:01:44.160Z,1011.79
2019-01-15T05:02:44.174Z,1011.82
2019-01-15T05:03:44.190Z,1011.84
2019-01-15T05:04:44.206Z,1011.83
2019-01-15T05:05:44.219Z,1011.78
2019-01-15T05:06:44.232Z,1011.82
2019-01-15T05:07:44.245Z,1011.76
2019-01-15T05:08:44.260Z,1011.80
2019-01-15T05:09:44.275Z,1011.78
2019-01-15T05:10:44.287Z,1011.69
2019-01-15T05:11:44.303Z,1011.68
2019-01-15T05:12:44.318Z,1011.68
2019-01-15T05:13:44.328Z,1011.67
2019-01-15T05:14:44.354Z,1011.69
2019-01-15T05:15:44.358Z,1011.66
2019-01-15T05:16:44.373Z,1011.67
2019-01-15T05:17:44.387Z,1011.66
2019-01-15T05:18:44.400Z,1011.66
2019-01-15T05:19:44.412Z,1011.66
2019-01-15T05:20:44.429Z,1011.64
2019-01-15T05:21:44.440Z,1011.65
2019-01-15T05:22:44.460Z,1011.61
2019-01-15T05:23:44.472Z,1011.64
2019-01-15T05:24:44.486Z,1011.62
2019-01-15T05:25:44.495Z,1011.65
2019-01-15T05:26:44.513Z,1011.59
2019-01-15T05:27:44.530Z,1011.59
2019-01-15T05:28:44.542Z,1011.53
2019-01-15T05:29:44.552Z,1011.51
2019-01-15T05:30:44.567Z,1011.49
2019-01-15T05:31:44.584Z,1011.46
2019-01-15T05:32:44.595Z,1011.50
2019-01-15T05:33:44.609Z,1011.40
2019-01-15T05:34:44.623Z,1011.35
2019-01-15T05:35:44.639Z,1011.38
2019-01-15T05:36:44.651Z,1011.31
2019-01-15T05:37:44.671Z,1011.28
2019-01-15T05:38:44.681Z,1011.25
2019-01-15T05:39:44.706Z,1011.24
2019-01-15T05:40:44.707Z,1011.25
2019-01-15T05:41:44.721Z,1011.20
2019-01-15T05:42:44.746Z,1011.22
2019-01-15T05:43:44.752Z,1011.20
2019-01-15T05:44:44.764Z,1011.19
2019-01-15T05:45:44.779Z,1011.17
2019-01-15T05:46:44.791Z,1011.18
2019-01-15T05:47:44.810Z,1011.16
2019-01-15T05:48:44.822Z,1011.17
2019-01-15T05:49:44.839Z,1011.16
2019-01-15T05:50:44.851Z,1011.16
2019-01-15T05:51:44.862Z,1011.10
2019-01-15T05:52:44.880Z,1011.15
2019-01-15T05:53:45.142Z,1011.12
2019-01-15T05:54:44.907Z,1011.09
2019-01-15T05:55:44.921Z,1011.12
2019-01-15T05:56:45.045Z,1011.12
2019-01-15T05:57:44.950Z,1011.10
2019-01-15T05:58:44.964Z,1011.04
2019-01-15T05:59:44.981Z,1011.06
2019-01-15T06:00:44.991Z,1011.04
2019-01-15T06:01:45.006Z,1011.06
2019-01-15T06:02:45.020Z,1011.09
2019-01-15T06:03:45.034Z,1011.09
2019-01-15T06:04:45.049Z,1011.09
2019-01-15T06:05:45.061Z,1011.06
2019-01-15T06:06:45.076Z,1011.08
2019-01-15T06:07:45.091Z,1011.06
2019-01-15T06:08:45.106Z,1011.03
2019-01-15T06:09:45.116Z,1010.96
2019-01-15T06:10:45.130Z,1010.99
2019-01-15T06:11:45.146Z,1011.04
2019-01-15T06:12:45.161Z,1011.09
2019-01-15T06:13:45.175Z,1011.10
2019-01-15T06:14:45.189Z,1011.04
2019-01-15T06:15:45.202Z,1011.03
2019-01-15T06:16:45.219Z,1011.03
2019-01-15T06:17:45.230Z,1011.08
2019-01-15T06:18:45.247Z,1011.06
2019-01-15T06:19:45.259Z,1011.02
2019-01-15T06:20:45.276Z,1011.06
2019-01-15T06:21:45.287Z,1011.02
2019-01-15T06:22:45.303Z,1011.04
2019-01-15T06:23:45.316Z,1011.06
2019-01-15T06:24:45.332Z,1011.02
2019-01-15T06:25:45.344Z,1011.05
2019-01-15T06:26:45.359Z,1011.07
2019-01-15T06:27:45.375Z,1011.06
2019-01-15T06:28:45.387Z,1010.99
2019-01-15T06:29:45.401Z,1010.97
2019-01-15T06:30:45.416Z,1010.99
2019-01-15T06:31:45.432Z,1010.99
2019-01-15T06:32:45.444Z,1010.93
2019-01-15T06:33:45.459Z,1010.95
2019-01-15T06:34:45.473Z,1010.93
2019-01-15T06:35:45.487Z,1010.92
2019-01-15T06:36:45.509Z,1010.94
2019-01-15T06:37:45.515Z,1010.93
2019-01-15T06:38:45.530Z,1010.91
2019-01-15T06:39:45.549Z,1010.92
2019-01-15T06:40:45.563Z,1011.04
2019-01-15T06:41:45.575Z,1010.99
2019-01-15T06:42:45.598Z,1011.09
2019-01-15T06:43:49.927Z,1011.02
2019-01-15T06:44:45.617Z,1010.99
2019-01-15T06:45:45.634Z,1010.91
2019-01-15T06:46:45.644Z,1010.90
2019-01-15T06:47:45.663Z,1010.89
2019-01-15T06:48:45.676Z,1010.91
2019-01-15T06:49:45.690Z,1010.99
2019-01-15T06:50:45.702Z,1010.95
2019-01-15T06:51:45.716Z,1010.99
2019-01-15T06:52:45.732Z,1010.96
2019-01-15T06:53:45.747Z,1010.90
2019-01-15T06:54:45.760Z,1010.87
2019-01-15T06:55:45.777Z,1010.87
2019-01-15T06:56:45.790Z,1011.02
2019-01-15T06:57:45.805Z,1011.02
2019-01-15T06:58:45.817Z,1010.93
2019-01-15T06:59:45.832Z,1010.92
2019-01-15T07:00:45.849Z,1010.94
2019-01-15T07:01:45.864Z,1010.95
2019-01-15T07:02:45.877Z,1010.97
2019-01-15T07:03:45.891Z,1011.00
2019-01-15T07:04:45.905Z,1011.01
2019-01-15T07:05:45.922Z,1011.01
2019-01-15T07:06:45.936Z,1010.98
2019-01-15T07:07:45.955Z,1010.96
2019-01-15T07:08:45.964Z,1010.90
2019-01-15T07:09:45.977Z,1010.84
2019-01-15T07:10:45.995Z,1010.98
2019-01-15T07:11:46.009Z,1010.90
2019-01-15T07:12:46.024Z,1010.86
2019-01-15T07:13:46.038Z,1010.79
2019-01-15T07:14:46.052Z,1010.80
2019-01-15T07:15:46.064Z,1010.86
2019-01-15T07:16:46.079Z,1010.82
2019-01-15T07:17:46.095Z,1010.89
2019-01-15T07:18:46.108Z,1010.87
2019-01-15T07:19:46.123Z,1010.89
2019-01-15T07:20:46.137Z,1010.89
2019-01-15T07:21:46.151Z,1010.86
2019-01-15T07:22:46.171Z,1010.80
2019-01-15T07:23:46.183Z,1010.73
2019-01-15T07:24:46.199Z,1010.73
2019-01-15T07:25:46.211Z,1010.75
2019-01-15T07:26:46.225Z,1010.79
2019-01-15T07:27:46.239Z,1010.77
2019-01-15T07:28:46.254Z,1010.71
2019-01-15T07:29:46.269Z,1010.69
2019-01-15T07:30:46.283Z,1010.62
2019-01-15T07:31:46.300Z,1010.58
2019-01-15T07:32:46.314Z,1010.54
2019-01-15T07:33:46.326Z,1010.63
2019-01-15T07:34:46.343Z,1010.63
2019-01-15T07:35:46.379Z,1010.60
2019-01-15T07:36:46.374Z,1010.58
2019-01-15T07:37:46.389Z,1010.56
2019-01-15T07:38:46.403Z,1010.48
2019-01-15T07:39:46.416Z,1010.53
2019-01-15T07:40:46.429Z,1010.53
2019-01-15T07:41:46.447Z,1010.52
2019-01-15T07:42:46.460Z,1010.58
2019-01-15T07:43:46.473Z,1010.59
2019-01-15T07:44:46.488Z,1010.62
2019-01-15T07:45:46.505Z,1010.65
2019-01-15T07:46:46.520Z,1010.67
2019-01-15T07:47:46.532Z,1010.63
2019-01-15T07:48:46.547Z,1010.62
2019-01-15T07:49:46.560Z,1010.70
2019-01-15T07:50:46.579Z,1010.66
2019-01-15T07:51:46.590Z,1010.73
2019-01-15T07:52:46.611Z,1010.70
2019-01-15T07:53:46.619Z,1010.68
2019-01-15T07:54:46.634Z,1010.75
2019-01-15T07:55:46.652Z,1010.72
2019-01-15T07:56:46.671Z,1010.77
2019-01-15T07:57:46.685Z,1010.73
2019-01-15T07:58:46.696Z,1010.76
2019-01-15T07:59:46.708Z,1010.68
2019-01-15T08:00:46.725Z,1010.75
2019-01-15T08:01:46.737Z,1010.75
2019-01-15T08:02:47.102Z,1010.71
2019-01-15T08:03:46.769Z,1010.69
2019-01-15T08:04:46.782Z,1010.78
2019-01-15T08:05:46.800Z,1010.72
2019-01-15T08:06:46.814Z,1010.76
2019-01-15T08:07:46.827Z,1010.75
2019-01-15T08:08:46.844Z,1010.78
2019-01-15T08:09:46.857Z,1010.81
2019-01-15T08:10:46.873Z,1010.82
2019-01-15T08:11:46.890Z,1010.81
2019-01-15T08:12:46.904Z,1010.78
2019-01-15T08:13:46.923Z,1010.81
2019-01-15T08:14:46.931Z,1010.78
2019-01-15T08:15:46.951Z,1010.76
2019-01-15T08:16:46.961Z,1010.77
2019-01-15T08:17:46.981Z,1010.81
2019-01-15T08:18:46.994Z,1010.80
2019-01-15T08:19:47.009Z,1010.81
2019-01-15T08:20:47.023Z,1010.89
2019-01-15T08:21:47.043Z,1010.83
2019-01-15T08:22:47.052Z,1010.85
2019-01-15T08:23:47.070Z,1010.82
2019-01-15T08:24:47.083Z,1010.80
2019-01-15T08:25:47.096Z,1010.82
2019-01-15T08:26:47.110Z,1010.78
2019-01-15T08:27:47.132Z,1010.78
2019-01-15T08:28:47.143Z,1010.75
2019-01-15T08:29:47.158Z,1010.82
2019-01-15T08:30:47.172Z,1010.81
2019-01-15T08:31:47.191Z,1010.80
2019-01-15T08:32:47.549Z,1010.76
2019-01-15T08:33:47.218Z,1010.85
2019-01-15T08:34:47.232Z,1010.83
2019-01-15T08:35:47.248Z,1010.83
2019-01-15T08:36:47.259Z,1010.86
2019-01-15T08:37:47.275Z,1010.84
2019-01-15T08:38:47.291Z,1010.83
2019-01-15T08:39:47.304Z,1010.78
2019-01-15T08:40:47.322Z,1010.79
2019-01-15T08:41:47.333Z,1010.87
2019-01-15T08:42:47.351Z,1010.83
2019-01-15T08:43:47.366Z,1010.86
2019-01-15T08:44:47.385Z,1010.81
2019-01-15T08:45:47.395Z,1010.83
2019-01-15T08:46:47.463Z,1010.82
2019-01-15T08:47:47.424Z,1010.80
2019-01-15T08:48:47.439Z,1010.78
2019-01-15T08:49:47.458Z,1010.85
2019-01-15T08:50:47.471Z,1010.82
2019-01-15T08:51:47.488Z,1010.82
2019-01-15T08:52:47.500Z,1010.88
2019-01-15T08:53:47.518Z,1010.91
2019-01-15T08:54:47.534Z,1010.92
2019-01-15T08:55:47.547Z,1010.90
2019-01-15T08:56:47.561Z,1010.79
2019-01-15T08:57:47.577Z,1010.82
2019-01-15T08:58:47.591Z,1010.80
2019-01-15T08:59:47.611Z,1010.78
2019-01-15T09:00:47.621Z,1010.78
2019-01-15T09:01:47.640Z,1010.75
2019-01-15T09:02:47.651Z,1010.75
2019-01-15T09:03:47.672Z,1010.77
2019-01-15T09:04:47.686Z,1010.80
2019-01-15T09:05:47.702Z,1010.77
2019-01-15T09:06:47.715Z,1010.78
2019-01-15T09:07:47.728Z,1010.76
2019-01-15T09:08:47.743Z,1010.72
2019-01-15T09:09:47.760Z,1010.76
2019-01-15T09:10:47.775Z,1010.78
2019-01-15T09:11:47.795Z,1010.82
2019-01-15T09:12:47.811Z,1010.76
2019-01-15T09:13:47.822Z,1010.80
2019-01-15T09:14:47.835Z,1010.78
2019-01-15T09:15:47.852Z,1010.82
2019-01-15T09:16:47.865Z,1010.75
2019-01-15T09:17:47.880Z,1010.71
2019-01-15T09:18:47.897Z,1010.71
2019-01-15T09:19:47.915Z,1010.74
2019-01-15T09:20:47.927Z,1010.69
2019-01-15T09:21:47.945Z,1010.66
2019-01-15T09:22:47.965Z,1010.65
2019-01-15T09:23:47.972Z,1010.70
2019-01-15T09:24:48.238Z,1010.70
2019-01-15T09:25:48.007Z,1010.66
2019-01-15T09:26:48.021Z,1010.70
2019-01-15T09:27:48.052Z,1010.62
2019-01-15T09:28:48.052Z,1010.64
2019-01-15T09:29:48.077Z,1010.66
2019-01-15T09:30:48.083Z,1010.63
2019-01-15T09:31:48.100Z,1010.68
2019-01-15T09:32:48.114Z,1010.66
2019-01-15T09:33:48.138Z,1010.61
2019-01-15T09:34:48.144Z,1010.63
2019-01-15T09:35:49.453Z,1010.66
2019-01-15T09:36:48.179Z,1010.62
2019-01-15T09:37:48.203Z,1010.59
2019-01-15T09:38:48.206Z,1010.55
2019-01-15T09:39:48.231Z,1010.55
2019-01-15T09:40:48.238Z,1010.54
2019-01-15T09:41:48.252Z,1010.56
2019-01-15T09:42:48.269Z,1010.55
2019-01-15T09:43:48.281Z,1010.56
2019-01-15T09:44:48.301Z,1010.54
2019-01-15T09:45:48.312Z,1010.56
2019-01-15T09:46:48.330Z,1010.54
2019-01-15T09:47:48.344Z,1010.46
2019-01-15T09:48:48.361Z,1010.51
2019-01-15T09:49:48.376Z,1010.45
2019-01-15T09:50:48.395Z,1010.49
2019-01-15T09:51:48.408Z,1010.59
2019-01-15T09:52:48.422Z,1010.57
2019-01-15T09:53:48.437Z,1010.49
2019-01-15T09:54:48.456Z,1010.56
2019-01-15T09:55:48.472Z,1010.55
2019-01-15T09:56:48.487Z,1010.52
2019-01-15T09:57:48.503Z,1010.50
2019-01-15T09:58:48.517Z,1010.50
2019-01-15T09:59:48.531Z,1010.51
2019-01-15T10:00:48.550Z,1010.57
2019-01-15T10:01:48.565Z,1010.45
2019-01-15T10:02:48.581Z,1010.43
2019-01-15T10:03:48.600Z,1010.46
2019-01-15T10:04:48.612Z,1010.42
2019-01-15T10:05:48.633Z,1010.43
2019-01-15T10:06:48.643Z,1010.47
2019-01-15T10:07:48.656Z,1010.45
2019-01-15T10:08:48.675Z,1010.45
2019-01-15T10:09:48.693Z,1010.50
2019-01-15T10:10:48.703Z,1010.47
2019-01-15T10:11:48.723Z,1010.43
2019-01-15T10:12:48.735Z,1010.48
2019-01-15T10:13:48.758Z,1010.48
2019-01-15T10:14:48.766Z,1010.49
2019-01-15T10:15:48.783Z,1010.47
2019-01-15T10:16:48.799Z,1010.51
2019-01-15T10:17:48.817Z,1010.47
2019-01-15T10:18:48.829Z,1010.49
2019-01-15T10:19:48.847Z,1010.45
2019-01-15T10:20:48.861Z,1010.42
2019-01-15T10:21:48.878Z,1010.40
2019-01-15T10:22:48.893Z,1010.42
2019-01-15T10:23:48.911Z,1010.36
2019-01-15T10:24:48.927Z,1010.35
2019-01-15T10:25:48.941Z,1010.31
2019-01-15T10:26:48.954Z,1010.28
2019-01-15T10:27:48.974Z,1010.26
2019-01-15T10:28:48.988Z,1010.25
2019-01-15T10:29:49.004Z,1010.28
2019-01-15T10:30:49.018Z,1010.24
2019-01-15T10:31:49.036Z,1010.30
2019-01-15T10:32:49.050Z,1010.25
2019-01-15T10:33:49.067Z,1010.25
2019-01-15T10:34:49.083Z,1010.29
2019-01-15T10:35:49.096Z,1010.30
2019-01-15T10:36:49.114Z,1010.32
2019-01-15T10:37:49.127Z,1010.29
2019-01-15T10:38:49.144Z,1010.23
2019-01-15T10:39:49.159Z,1010.23
2019-01-15T10:40:49.175Z,1010.29
2019-01-15T10:41:49.193Z,1010.20
2019-01-15T10:42:49.211Z,1010.23
2019-01-15T10:43:49.222Z,1010.20
2019-01-15T10:44:49.241Z,1010.20
2019-01-15T10:45:49.258Z,1010.17
2019-01-15T10:46:49.271Z,1010.20
2019-01-15T10:47:49.288Z,1010.15
2019-01-15T10:48:49.304Z,1010.17
2019-01-15T10:49:49.318Z,1010.15
2019-01-15T10:50:49.334Z,1010.06
2019-01-15T10:51:49.353Z,1010.12
2019-01-15T10:52:49.368Z,1010.21
2019-01-15T10:53:49.383Z,1010.16
2019-01-15T10:54:49.399Z,1010.12
2019-01-15T10:55:49.412Z,1010.12
2019-01-15T10:56:49.434Z,1010.11
2019-01-15T10:57:49.445Z,1010.14
2019-01-15T10:58:49.461Z,1010.09
2019-01-15T10:59:49.477Z,1010.08
2019-01-15T11:00:49.492Z,1010.15
2019-01-15T11:01:49.507Z,1010.12
2019-01-15T11:02:49.526Z,1010.02
2019-01-15T11:03:49.539Z,1010.08
2019-01-15T11:04:49.559Z,1010.13
2019-01-15T11:05:49.571Z,1010.10
2019-01-15T11:06:49.594Z,1010.09
2019-01-15T11:07:50.105Z,1010.07
2019-01-15T11:08:49.621Z,1010.01
2019-01-15T11:09:49.638Z,1010.10
2019-01-15T11:10:49.663Z,1010.08
2019-01-15T11:11:49.672Z,1010.02
2019-01-15T11:12:49.684Z,1010.06
2019-01-15T11:13:49.698Z,1010.02
2019-01-15T11:14:56.094Z,1010.04
2019-01-15T11:15:49.735Z,1010.05
2019-01-15T11:16:49.747Z,1010.06
2019-01-15T11:17:49.764Z,1010.00
2019-01-15T11:18:49.777Z,1009.99
2019-01-15T11:19:50.047Z,1010.05
2019-01-15T11:20:49.814Z,1009.99
2019-01-15T11:21:49.829Z,1010.05
2019-01-15T11:22:49.840Z,1010.03
2019-01-15T11:23:49.867Z,1010.05
2019-01-15T11:24:49.877Z,1010.01
2019-01-15T11:25:49.890Z,1010.05
2019-01-15T11:26:49.906Z,1009.99
2019-01-15T11:27:49.920Z,1009.99
2019-01-15T11:28:49.936Z,1009.97
2019-01-15T11:29:49.954Z,1009.95
2019-01-15T11:30:49.971Z,1009.97
2019-01-15T11:31:49.986Z,1009.97
2019-01-15T11:32:50.001Z,1009.89
2019-01-15T11:33:50.015Z,1009.88
2019-01-15T11:34:50.032Z,1009.88
2019-01-15T11:35:50.052Z,1009.92
2019-01-15T11:36:50.064Z,1009.91
2019-01-15T11:37:50.079Z,1009.96
2019-01-15T11:38:50.098Z,1009.93
2019-01-15T11:39:50.116Z,1009.94
2019-01-15T11:40:50.128Z,1009.95
2019-01-15T11:41:50.146Z,1009.90
2019-01-15T11:42:50.165Z,1009.86
2019-01-15T11:43:50.179Z,1009.87
2019-01-15T11:44:50.201Z,1009.87
2019-01-15T11:45:50.209Z,1009.91
2019-01-15T11:46:50.228Z,1009.83
2019-01-15T11:47:50.241Z,1009.87
2019-01-15T11:48:50.257Z,1009.85
2019-01-15T11:49:50.277Z,1009.86
2019-01-15T11:50:50.291Z,1009.87
2019-01-15T11:51:50.309Z,1009.83
2019-01-15T11:52:50.324Z,1009.80
2019-01-15T11:53:50.341Z,1009.75
2019-01-15T11:54:50.354Z,1009.73
2019-01-15T11:55:50.371Z,1009.73
2019-01-15T11:56:50.388Z,1009.76
2019-01-15T11:57:50.402Z,1009.75
2019-01-15T11:58:50.421Z,1009.84
2019-01-15T11:59:50.435Z,1009.76
2019-01-15T12:00:50.656Z,1009.78
2019-01-15T12:01:50.471Z,1009.80
2019-01-15T12:02:50.487Z,1009.72
2019-01-15T12:03:50.501Z,1009.73
2019-01-15T12:04:50.519Z,1009.76
2019-01-15T12:05:52.138Z,1009.73